sensor_id;sensor_type;location;lat;lon;timestamp;P1;durP1;ratioP1;P2;durP2;ratioP2
64795;SDS011;51229;51.980;6.722;2023-02-15T00:01:35;29.08;;;18.42;;
64795;SDS011;51229;51.980;6.722;2023-02-15T00:04:01;31.77;;;19.23;;
64795;SDS011;51229;51.980;6.722;2023-02-15T00:06:27;27.77;;;17.83;;
64795;SDS011;51229;51.980;6.722;2023-02-15T00:08:54;31.77;;;18.77;;
64795;SDS011;51229;51.980;6.722;2023-02-15T00:11:20;30.60;;;18.63;;
64795;SDS011;51229;51.980;6.722;2023-02-15T00:16:31;32.13;;;19.08;;
64795;SDS011;51229;51.980;6.722;2023-02-15T00:18:57;31.13;;;19.38;;
64795;SDS011;51229;51.980;6.722;2023-02-15T00:21:26;36.30;;;19.83;;
64795;SDS011;51229;51.980;6.722;2023-02-15T00:23:53;35.80;;;20.70;;
64795;SDS011;51229;51.980;6.722;2023-02-15T00:26:19;31.80;;;19.58;;
64795;SDS011;51229;51.980;6.722;2023-02-15T00:28:46;30.48;;;18.23;;
64795;SDS011;51229;51.980;6.722;2023-02-15T00:31:12;31.17;;;18.60;;
64795;SDS011;51229;51.980;6.722;2023-02-15T00:33:38;33.22;;;20.08;;
64795;SDS011;51229;51.980;6.722;2023-02-15T00:36:05;33.47;;;19.80;;
64795;SDS011;51229;51.980;6.722;2023-02-15T00:38:32;30.73;;;19.33;;
64795;SDS011;51229;51.980;6.722;2023-02-15T00:40:59;34.97;;;20.10;;
64795;SDS011;51229;51.980;6.722;2023-02-15T00:43:26;31.10;;;18.67;;
64795;SDS011;51229;51.980;6.722;2023-02-15T00:45:53;31.55;;;18.73;;
64795;SDS011;51229;51.980;6.722;2023-02-15T00:48:20;34.13;;;18.60;;
64795;SDS011;51229;51.980;6.722;2023-02-15T00:50:49;30.30;;;17.63;;
64795;SDS011;51229;51.980;6.722;2023-02-15T00:53:15;33.42;;;18.85;;
64795;SDS011;51229;51.980;6.722;2023-02-15T00:55:41;29.10;;;18.10;;
64795;SDS011;51229;51.980;6.722;2023-02-15T00:58:08;29.60;;;18.52;;
64795;SDS011;51229;51.980;6.722;2023-02-15T01:00:34;31.77;;;18.60;;
64795;SDS011;51229;51.980;6.722;2023-02-15T01:03:00;29.75;;;18.00;;
64795;SDS011;51229;51.980;6.722;2023-02-15T01:05:26;30.15;;;17.77;;
64795;SDS011;51229;51.980;6.722;2023-02-15T01:07:54;32.70;;;17.92;;
64795;SDS011;51229;51.980;6.722;2023-02-15T01:10:20;27.40;;;17.05;;
64795;SDS011;51229;51.980;6.722;2023-02-15T01:12:46;32.60;;;18.13;;
64795;SDS011;51229;51.980;6.722;2023-02-15T01:15:13;29.60;;;17.13;;
64795;SDS011;51229;51.980;6.722;2023-02-15T01:17:39;29.67;;;17.35;;
64795;SDS011;51229;51.980;6.722;2023-02-15T01:20:05;32.50;;;17.75;;
64795;SDS011;51229;51.980;6.722;2023-02-15T01:22:32;29.98;;;17.10;;
64795;SDS011;51229;51.980;6.722;2023-02-15T01:25:00;30.40;;;17.70;;
64795;SDS011;51229;51.980;6.722;2023-02-15T01:27:28;27.65;;;16.33;;
64795;SDS011;51229;51.980;6.722;2023-02-15T01:29:56;27.55;;;16.08;;
64795;SDS011;51229;51.980;6.722;2023-02-15T01:32:22;28.48;;;16.20;;
64795;SDS011;51229;51.980;6.722;2023-02-15T01:34:48;26.75;;;15.43;;
64795;SDS011;51229;51.980;6.722;2023-02-15T01:37:14;27.65;;;15.68;;
64795;SDS011;51229;51.980;6.722;2023-02-15T01:39:40;26.83;;;15.68;;
64795;SDS011;51229;51.980;6.722;2023-02-15T01:42:10;26.13;;;15.55;;
64795;SDS011;51229;51.980;6.722;2023-02-15T01:47:09;27.85;;;15.82;;
64795;SDS011;51229;51.980;6.722;2023-02-15T01:49:36;27.73;;;15.43;;
64795;SDS011;51229;51.980;6.722;2023-02-15T01:52:06;27.55;;;15.15;;
64795;SDS011;51229;51.980;6.722;2023-02-15T01:54:33;24.92;;;14.80;;
64795;SDS011;51229;51.980;6.722;2023-02-15T01:57:04;27.52;;;14.90;;
64795;SDS011;51229;51.980;6.722;2023-02-15T01:59:31;28.63;;;15.50;;
64795;SDS011;51229;51.980;6.722;2023-02-15T02:01:58;29.25;;;15.25;;
64795;SDS011;51229;51.980;6.722;2023-02-15T02:06:55;28.27;;;14.93;;
64795;SDS011;51229;51.980;6.722;2023-02-15T02:09:22;26.55;;;15.05;;
64795;SDS011;51229;51.980;6.722;2023-02-15T02:11:49;26.30;;;15.18;;
64795;SDS011;51229;51.980;6.722;2023-02-15T02:14:15;26.20;;;15.00;;
64795;SDS011;51229;51.980;6.722;2023-02-15T02:16:57;25.10;;;14.40;;
64795;SDS011;51229;51.980;6.722;2023-02-15T02:25:27;27.25;;;14.75;;
64795;SDS011;51229;51.980;6.722;2023-02-15T02:37:22;27.73;;;15.85;;
64795;SDS011;51229;51.980;6.722;2023-02-15T02:40:03;27.80;;;15.32;;
64795;SDS011;51229;51.980;6.722;2023-02-15T02:42:35;36.92;;;19.65;;
64795;SDS011;51229;51.980;6.722;2023-02-15T02:45:06;38.35;;;20.25;;
64795;SDS011;51229;51.980;6.722;2023-02-15T02:47:35;34.13;;;20.00;;
64795;SDS011;51229;51.980;6.722;2023-02-15T02:50:03;34.90;;;19.42;;
64795;SDS011;51229;51.980;6.722;2023-02-15T02:52:34;37.03;;;20.23;;
64795;SDS011;51229;51.980;6.722;2023-02-15T02:55:02;31.17;;;17.52;;
64795;SDS011;51229;51.980;6.722;2023-02-15T02:57:29;30.48;;;17.27;;
64795;SDS011;51229;51.980;6.722;2023-02-15T02:59:56;29.42;;;16.80;;
64795;SDS011;51229;51.980;6.722;2023-02-15T03:02:26;28.40;;;16.20;;
64795;SDS011;51229;51.980;6.722;2023-02-15T03:04:55;26.85;;;15.23;;
64795;SDS011;51229;51.980;6.722;2023-02-15T03:07:29;26.52;;;15.60;;
64795;SDS011;51229;51.980;6.722;2023-02-15T03:09:58;27.83;;;15.70;;
64795;SDS011;51229;51.980;6.722;2023-02-15T03:12:29;28.20;;;15.35;;
64795;SDS011;51229;51.980;6.722;2023-02-15T03:14:59;27.10;;;15.25;;
64795;SDS011;51229;51.980;6.722;2023-02-15T03:17:27;27.17;;;15.70;;
64795;SDS011;51229;51.980;6.722;2023-02-15T03:19:56;30.10;;;16.00;;
64795;SDS011;51229;51.980;6.722;2023-02-15T03:22:25;29.10;;;15.70;;
64795;SDS011;51229;51.980;6.722;2023-02-15T03:25:00;26.08;;;15.88;;
64795;SDS011;51229;51.980;6.722;2023-02-15T03:27:31;28.63;;;15.65;;
64795;SDS011;51229;51.980;6.722;2023-02-15T03:30:00;30.23;;;15.25;;
64795;SDS011;51229;51.980;6.722;2023-02-15T03:32:28;28.85;;;14.95;;
64795;SDS011;51229;51.980;6.722;2023-02-15T03:34:55;27.30;;;14.93;;
64795;SDS011;51229;51.980;6.722;2023-02-15T03:39:58;29.15;;;15.85;;
64795;SDS011;51229;51.980;6.722;2023-02-15T03:42:45;28.67;;;15.57;;
64795;SDS011;51229;51.980;6.722;2023-02-15T03:45:14;25.65;;;14.48;;
64795;SDS011;51229;51.980;6.722;2023-02-15T03:47:45;23.58;;;13.38;;
64795;SDS011;51229;51.980;6.722;2023-02-15T03:50:13;24.25;;;12.95;;
64795;SDS011;51229;51.980;6.722;2023-02-15T03:53:00;25.05;;;13.70;;
64795;SDS011;51229;51.980;6.722;2023-02-15T03:55:28;25.45;;;14.15;;
64795;SDS011;51229;51.980;6.722;2023-02-15T03:57:55;26.33;;;14.73;;
64795;SDS011;51229;51.980;6.722;2023-02-15T04:03:59;25.65;;;12.93;;
64795;SDS011;51229;51.980;6.722;2023-02-15T04:06:26;26.45;;;13.05;;
64795;SDS011;51229;51.980;6.722;2023-02-15T04:08:52;30.00;;;13.88;;
64795;SDS011;51229;51.980;6.722;2023-02-15T04:11:37;27.77;;;13.75;;
64795;SDS011;51229;51.980;6.722;2023-02-15T04:14:03;25.58;;;13.07;;
64795;SDS011;51229;51.980;6.722;2023-02-15T04:16:49;24.63;;;13.20;;
64795;SDS011;51229;51.980;6.722;2023-02-15T04:19:15;25.63;;;13.25;;
64795;SDS011;51229;51.980;6.722;2023-02-15T04:22:00;25.45;;;13.30;;
64795;SDS011;51229;51.980;6.722;2023-02-15T04:24:45;24.50;;;12.75;;
64795;SDS011;51229;51.980;6.722;2023-02-15T04:27:30;23.85;;;13.18;;
64795;SDS011;51229;51.980;6.722;2023-02-15T04:29:56;26.17;;;13.27;;
64795;SDS011;51229;51.980;6.722;2023-02-15T04:32:22;24.30;;;13.65;;
64795;SDS011;51229;51.980;6.722;2023-02-15T04:34:48;27.02;;;14.15;;
64795;SDS011;51229;51.980;6.722;2023-02-15T04:37:14;24.95;;;13.55;;
64795;SDS011;51229;51.980;6.722;2023-02-15T04:39:40;24.25;;;13.32;;
64795;SDS011;51229;51.980;6.722;2023-02-15T04:42:06;26.48;;;14.18;;
64795;SDS011;51229;51.980;6.722;2023-02-15T04:44:32;24.35;;;13.25;;
64795;SDS011;51229;51.980;6.722;2023-02-15T04:46:58;26.48;;;14.23;;
64795;SDS011;51229;51.980;6.722;2023-02-15T04:49:24;26.15;;;14.35;;
64795;SDS011;51229;51.980;6.722;2023-02-15T04:51:50;25.95;;;13.75;;
64795;SDS011;51229;51.980;6.722;2023-02-15T04:54:16;26.27;;;14.40;;
64795;SDS011;51229;51.980;6.722;2023-02-15T04:56:42;25.10;;;13.77;;
64795;SDS011;51229;51.980;6.722;2023-02-15T04:59:09;22.50;;;13.27;;
64795;SDS011;51229;51.980;6.722;2023-02-15T05:01:36;27.30;;;13.27;;
64795;SDS011;51229;51.980;6.722;2023-02-15T05:04:02;25.08;;;13.25;;
64795;SDS011;51229;51.980;6.722;2023-02-15T05:06:28;26.50;;;13.73;;
64795;SDS011;51229;51.980;6.722;2023-02-15T05:08:54;25.13;;;13.50;;
64795;SDS011;51229;51.980;6.722;2023-02-15T05:11:20;26.88;;;14.55;;
64795;SDS011;51229;51.980;6.722;2023-02-15T05:13:46;25.48;;;13.85;;
64795;SDS011;51229;51.980;6.722;2023-02-15T05:16:12;27.70;;;14.02;;
64795;SDS011;51229;51.980;6.722;2023-02-15T05:18:38;26.45;;;13.48;;
64795;SDS011;51229;51.980;6.722;2023-02-15T05:21:05;28.52;;;14.82;;
64795;SDS011;51229;51.980;6.722;2023-02-15T05:23:31;24.90;;;13.05;;
64795;SDS011;51229;51.980;6.722;2023-02-15T05:25:57;26.05;;;13.65;;
64795;SDS011;51229;51.980;6.722;2023-02-15T05:28:41;25.13;;;13.32;;
64795;SDS011;51229;51.980;6.722;2023-02-15T05:31:13;27.35;;;14.15;;
64795;SDS011;51229;51.980;6.722;2023-02-15T05:33:39;26.02;;;14.07;;
64795;SDS011;51229;51.980;6.722;2023-02-15T05:36:05;24.67;;;13.90;;
64795;SDS011;51229;51.980;6.722;2023-02-15T05:38:32;24.77;;;13.57;;
64795;SDS011;51229;51.980;6.722;2023-02-15T05:40:58;25.58;;;14.02;;
64795;SDS011;51229;51.980;6.722;2023-02-15T05:43:24;24.10;;;12.52;;
64795;SDS011;51229;51.980;6.722;2023-02-15T05:45:51;24.83;;;12.60;;
64795;SDS011;51229;51.980;6.722;2023-02-15T05:48:21;25.38;;;13.02;;
64795;SDS011;51229;51.980;6.722;2023-02-15T05:51:07;29.52;;;13.35;;
64795;SDS011;51229;51.980;6.722;2023-02-15T05:53:37;24.13;;;13.13;;
64795;SDS011;51229;51.980;6.722;2023-02-15T05:56:04;27.73;;;13.38;;
64795;SDS011;51229;51.980;6.722;2023-02-15T05:58:37;26.33;;;13.10;;
64795;SDS011;51229;51.980;6.722;2023-02-15T06:01:13;28.63;;;14.52;;
64795;SDS011;51229;51.980;6.722;2023-02-15T06:03:40;28.02;;;15.05;;
64795;SDS011;51229;51.980;6.722;2023-02-15T06:06:06;27.42;;;14.07;;
64795;SDS011;51229;51.980;6.722;2023-02-15T06:08:32;26.90;;;14.30;;
64795;SDS011;51229;51.980;6.722;2023-02-15T06:10:59;25.58;;;13.50;;
64795;SDS011;51229;51.980;6.722;2023-02-15T06:13:25;26.50;;;13.93;;
64795;SDS011;51229;51.980;6.722;2023-02-15T06:15:51;27.83;;;13.95;;
64795;SDS011;51229;51.980;6.722;2023-02-15T06:18:17;29.48;;;14.52;;
64795;SDS011;51229;51.980;6.722;2023-02-15T06:20:46;26.45;;;14.10;;
64795;SDS011;51229;51.980;6.722;2023-02-15T06:23:13;28.45;;;14.23;;
64795;SDS011;51229;51.980;6.722;2023-02-15T06:25:39;27.45;;;14.15;;
64795;SDS011;51229;51.980;6.722;2023-02-15T06:28:05;25.80;;;13.60;;
64795;SDS011;51229;51.980;6.722;2023-02-15T06:30:31;28.40;;;14.38;;
64795;SDS011;51229;51.980;6.722;2023-02-15T06:32:58;30.00;;;15.13;;
64795;SDS011;51229;51.980;6.722;2023-02-15T06:35:24;31.65;;;15.52;;
64795;SDS011;51229;51.980;6.722;2023-02-15T06:37:50;29.60;;;14.65;;
64795;SDS011;51229;51.980;6.722;2023-02-15T06:40:16;27.83;;;14.63;;
64795;SDS011;51229;51.980;6.722;2023-02-15T06:42:42;30.10;;;16.00;;
64795;SDS011;51229;51.980;6.722;2023-02-15T06:45:08;28.63;;;15.00;;
64795;SDS011;51229;51.980;6.722;2023-02-15T06:47:35;31.33;;;15.35;;
64795;SDS011;51229;51.980;6.722;2023-02-15T06:50:02;32.35;;;14.40;;
64795;SDS011;51229;51.980;6.722;2023-02-15T06:52:28;30.67;;;15.60;;
64795;SDS011;51229;51.980;6.722;2023-02-15T06:54:54;32.28;;;16.20;;
64795;SDS011;51229;51.980;6.722;2023-02-15T06:57:20;31.55;;;15.82;;
64795;SDS011;51229;51.980;6.722;2023-02-15T06:59:46;28.17;;;15.05;;
64795;SDS011;51229;51.980;6.722;2023-02-15T07:02:12;32.78;;;14.90;;
64795;SDS011;51229;51.980;6.722;2023-02-15T07:04:39;32.45;;;16.08;;
64795;SDS011;51229;51.980;6.722;2023-02-15T07:07:07;33.58;;;16.92;;
64795;SDS011;51229;51.980;6.722;2023-02-15T07:09:34;33.17;;;16.63;;
64795;SDS011;51229;51.980;6.722;2023-02-15T07:12:00;32.58;;;16.55;;
64795;SDS011;51229;51.980;6.722;2023-02-15T07:14:45;31.40;;;15.63;;
64795;SDS011;51229;51.980;6.722;2023-02-15T07:17:11;33.35;;;17.08;;
64795;SDS011;51229;51.980;6.722;2023-02-15T07:19:37;30.77;;;15.68;;
64795;SDS011;51229;51.980;6.722;2023-02-15T07:22:03;31.60;;;16.45;;
64795;SDS011;51229;51.980;6.722;2023-02-15T07:24:30;35.45;;;16.50;;
64795;SDS011;51229;51.980;6.722;2023-02-15T07:26:56;33.63;;;16.77;;
64795;SDS011;51229;51.980;6.722;2023-02-15T07:29:23;33.92;;;16.35;;
64795;SDS011;51229;51.980;6.722;2023-02-15T07:31:49;34.45;;;17.45;;
64795;SDS011;51229;51.980;6.722;2023-02-15T07:34:15;43.03;;;18.25;;
64795;SDS011;51229;51.980;6.722;2023-02-15T07:36:41;33.75;;;16.98;;
64795;SDS011;51229;51.980;6.722;2023-02-15T07:39:09;39.90;;;18.45;;
64795;SDS011;51229;51.980;6.722;2023-02-15T07:41:35;38.40;;;18.00;;
64795;SDS011;51229;51.980;6.722;2023-02-15T07:44:13;35.75;;;17.70;;
64795;SDS011;51229;51.980;6.722;2023-02-15T07:46:39;37.45;;;18.67;;
64795;SDS011;51229;51.980;6.722;2023-02-15T07:49:05;38.92;;;18.15;;
64795;SDS011;51229;51.980;6.722;2023-02-15T07:51:31;38.90;;;19.63;;
64795;SDS011;51229;51.980;6.722;2023-02-15T07:53:57;40.28;;;19.80;;
64795;SDS011;51229;51.980;6.722;2023-02-15T07:56:23;39.80;;;19.75;;
64795;SDS011;51229;51.980;6.722;2023-02-15T07:58:49;45.92;;;20.50;;
64795;SDS011;51229;51.980;6.722;2023-02-15T08:01:16;42.60;;;21.90;;
64795;SDS011;51229;51.980;6.722;2023-02-15T08:03:42;47.20;;;20.48;;
64795;SDS011;51229;51.980;6.722;2023-02-15T08:06:08;47.35;;;20.80;;
64795;SDS011;51229;51.980;6.722;2023-02-15T08:08:36;49.45;;;24.70;;
64795;SDS011;51229;51.980;6.722;2023-02-15T08:11:04;48.80;;;22.02;;
64795;SDS011;51229;51.980;6.722;2023-02-15T08:14:17;50.63;;;21.52;;
64795;SDS011;51229;51.980;6.722;2023-02-15T08:16:44;47.40;;;22.45;;
64795;SDS011;51229;51.980;6.722;2023-02-15T08:19:11;43.90;;;22.05;;
64795;SDS011;51229;51.980;6.722;2023-02-15T08:21:39;43.00;;;20.00;;
64795;SDS011;51229;51.980;6.722;2023-02-15T08:24:05;43.63;;;20.70;;
64795;SDS011;51229;51.980;6.722;2023-02-15T08:26:32;39.83;;;20.88;;
64795;SDS011;51229;51.980;6.722;2023-02-15T08:28:59;40.38;;;20.48;;
64795;SDS011;51229;51.980;6.722;2023-02-15T08:31:25;43.47;;;21.67;;
64795;SDS011;51229;51.980;6.722;2023-02-15T08:33:52;41.13;;;19.20;;
64795;SDS011;51229;51.980;6.722;2023-02-15T08:36:20;40.60;;;19.90;;
64795;SDS011;51229;51.980;6.722;2023-02-15T08:38:46;38.55;;;20.15;;
64795;SDS011;51229;51.980;6.722;2023-02-15T08:41:20;39.67;;;19.20;;
64795;SDS011;51229;51.980;6.722;2023-02-15T08:43:48;37.05;;;18.67;;
64795;SDS011;51229;51.980;6.722;2023-02-15T08:46:16;36.80;;;18.10;;
64795;SDS011;51229;51.980;6.722;2023-02-15T08:48:42;37.78;;;19.08;;
64795;SDS011;51229;51.980;6.722;2023-02-15T08:51:15;37.50;;;19.05;;
64795;SDS011;51229;51.980;6.722;2023-02-15T08:53:43;38.25;;;18.10;;
64795;SDS011;51229;51.980;6.722;2023-02-15T08:56:10;33.88;;;18.77;;
64795;SDS011;51229;51.980;6.722;2023-02-15T08:58:36;37.75;;;18.00;;
64795;SDS011;51229;51.980;6.722;2023-02-15T09:01:19;33.67;;;17.38;;
64795;SDS011;51229;51.980;6.722;2023-02-15T09:03:46;35.60;;;18.42;;
64795;SDS011;51229;51.980;6.722;2023-02-15T09:06:12;35.67;;;18.65;;
64795;SDS011;51229;51.980;6.722;2023-02-15T09:08:38;38.25;;;18.50;;
64795;SDS011;51229;51.980;6.722;2023-02-15T09:11:14;33.67;;;17.65;;
64795;SDS011;51229;51.980;6.722;2023-02-15T09:16:19;31.05;;;16.33;;
64795;SDS011;51229;51.980;6.722;2023-02-15T09:18:45;36.60;;;17.88;;
64795;SDS011;51229;51.980;6.722;2023-02-15T09:21:13;34.35;;;17.75;;
64795;SDS011;51229;51.980;6.722;2023-02-15T09:23:43;36.67;;;17.75;;
64795;SDS011;51229;51.980;6.722;2023-02-15T09:26:10;32.85;;;17.75;;
64795;SDS011;51229;51.980;6.722;2023-02-15T09:28:36;34.30;;;18.58;;
64795;SDS011;51229;51.980;6.722;2023-02-15T09:33:35;31.48;;;17.42;;
64795;SDS011;51229;51.980;6.722;2023-02-15T09:36:03;31.92;;;17.10;;
64795;SDS011;51229;51.980;6.722;2023-02-15T09:38:29;35.88;;;17.73;;
64795;SDS011;51229;51.980;6.722;2023-02-15T09:41:20;33.75;;;17.33;;
64795;SDS011;51229;51.980;6.722;2023-02-15T09:43:42;31.63;;;17.25;;
64795;SDS011;51229;51.980;6.722;2023-02-15T09:48:46;33.42;;;16.45;;
64795;SDS011;51229;51.980;6.722;2023-02-15T09:53:45;33.47;;;16.77;;
64795;SDS011;51229;51.980;6.722;2023-02-15T10:06:34;29.95;;;16.60;;
64795;SDS011;51229;51.980;6.722;2023-02-15T10:16:58;32.63;;;16.42;;
64795;SDS011;51229;51.980;6.722;2023-02-15T10:19:34;31.45;;;17.20;;
64795;SDS011;51229;51.980;6.722;2023-02-15T10:22:10;32.83;;;17.02;;
64795;SDS011;51229;51.980;6.722;2023-02-15T10:24:53;31.83;;;17.02;;
64795;SDS011;51229;51.980;6.722;2023-02-15T10:29:57;34.33;;;16.75;;
64795;SDS011;51229;51.980;6.722;2023-02-15T10:32:27;32.50;;;16.92;;
64795;SDS011;51229;51.980;6.722;2023-02-15T10:40:32;32.92;;;17.52;;
64795;SDS011;51229;51.980;6.722;2023-02-15T10:43:06;35.50;;;17.58;;
64795;SDS011;51229;51.980;6.722;2023-02-15T10:48:11;32.63;;;17.05;;
64795;SDS011;51229;51.980;6.722;2023-02-15T11:06:11;32.85;;;17.20;;
64795;SDS011;51229;51.980;6.722;2023-02-15T11:08:48;28.23;;;17.10;;
64795;SDS011;51229;51.980;6.722;2023-02-15T11:11:19;30.83;;;16.63;;
64795;SDS011;51229;51.980;6.722;2023-02-15T11:13:48;29.90;;;16.23;;
64795;SDS011;51229;51.980;6.722;2023-02-15T11:16:17;29.27;;;15.82;;
64795;SDS011;51229;51.980;6.722;2023-02-15T11:18:45;28.17;;;16.83;;
64795;SDS011;51229;51.980;6.722;2023-02-15T11:23:45;28.80;;;16.85;;
64795;SDS011;51229;51.980;6.722;2023-02-15T11:26:24;28.65;;;16.40;;
64795;SDS011;51229;51.980;6.722;2023-02-15T11:29:07;30.40;;;16.55;;
64795;SDS011;51229;51.980;6.722;2023-02-15T11:31:42;27.30;;;15.35;;
64795;SDS011;51229;51.980;6.722;2023-02-15T11:34:15;30.48;;;15.85;;
64795;SDS011;51229;51.980;6.722;2023-02-15T11:36:44;28.13;;;15.95;;
64795;SDS011;51229;51.980;6.722;2023-02-15T11:39:11;26.02;;;15.23;;
64795;SDS011;51229;51.980;6.722;2023-02-15T11:41:40;28.13;;;15.48;;
64795;SDS011;51229;51.980;6.722;2023-02-15T11:46:33;26.73;;;15.65;;
64795;SDS011;51229;51.980;6.722;2023-02-15T11:49:00;28.67;;;15.68;;
64795;SDS011;51229;51.980;6.722;2023-02-15T11:51:27;29.52;;;16.40;;
64795;SDS011;51229;51.980;6.722;2023-02-15T11:53:54;27.42;;;14.65;;
64795;SDS011;51229;51.980;6.722;2023-02-15T11:56:22;27.92;;;15.80;;
64795;SDS011;51229;51.980;6.722;2023-02-15T11:58:51;28.52;;;15.48;;
64795;SDS011;51229;51.980;6.722;2023-02-15T12:03:53;27.25;;;16.20;;
64795;SDS011;51229;51.980;6.722;2023-02-15T12:06:28;33.75;;;16.35;;
64795;SDS011;51229;51.980;6.722;2023-02-15T12:09:03;27.75;;;15.77;;
64795;SDS011;51229;51.980;6.722;2023-02-15T12:11:33;29.38;;;15.77;;
64795;SDS011;51229;51.980;6.722;2023-02-15T12:14:05;28.05;;;15.30;;
64795;SDS011;51229;51.980;6.722;2023-02-15T12:16:33;27.27;;;15.85;;
64795;SDS011;51229;51.980;6.722;2023-02-15T12:19:01;26.60;;;15.18;;
64795;SDS011;51229;51.980;6.722;2023-02-15T12:21:28;27.27;;;15.30;;
64795;SDS011;51229;51.980;6.722;2023-02-15T12:23:57;28.30;;;15.15;;
64795;SDS011;51229;51.980;6.722;2023-02-15T12:26:28;30.95;;;16.40;;
64795;SDS011;51229;51.980;6.722;2023-02-15T12:28:56;26.77;;;15.70;;
64795;SDS011;51229;51.980;6.722;2023-02-15T12:31:27;29.60;;;15.30;;
64795;SDS011;51229;51.980;6.722;2023-02-15T12:33:55;26.17;;;15.75;;
64795;SDS011;51229;51.980;6.722;2023-02-15T12:36:32;25.45;;;14.60;;
64795;SDS011;51229;51.980;6.722;2023-02-15T12:39:21;24.90;;;15.80;;
64795;SDS011;51229;51.980;6.722;2023-02-15T12:44:21;27.80;;;16.13;;
64795;SDS011;51229;51.980;6.722;2023-02-15T12:49:27;25.48;;;12.93;;
64795;SDS011;51229;51.980;6.722;2023-02-15T12:51:57;26.98;;;14.45;;
64795;SDS011;51229;51.980;6.722;2023-02-15T12:56:51;24.35;;;14.15;;
64795;SDS011;51229;51.980;6.722;2023-02-15T12:59:17;26.15;;;13.73;;
64795;SDS011;51229;51.980;6.722;2023-02-15T13:01:47;22.48;;;13.07;;
64795;SDS011;51229;51.980;6.722;2023-02-15T13:04:19;27.65;;;15.05;;
64795;SDS011;51229;51.980;6.722;2023-02-15T13:06:48;25.27;;;14.80;;
64795;SDS011;51229;51.980;6.722;2023-02-15T13:11:54;25.67;;;15.00;;
64795;SDS011;51229;51.980;6.722;2023-02-15T13:14:22;28.50;;;14.77;;
64795;SDS011;51229;51.980;6.722;2023-02-15T13:16:54;26.58;;;14.35;;
64795;SDS011;51229;51.980;6.722;2023-02-15T13:19:28;24.73;;;14.95;;
64795;SDS011;51229;51.980;6.722;2023-02-15T13:21:57;24.70;;;14.32;;
64795;SDS011;51229;51.980;6.722;2023-02-15T13:26:49;25.13;;;14.55;;
64795;SDS011;51229;51.980;6.722;2023-02-15T13:29:21;26.58;;;14.82;;
64795;SDS011;51229;51.980;6.722;2023-02-15T13:31:48;26.60;;;15.93;;
64795;SDS011;51229;51.980;6.722;2023-02-15T13:34:15;24.17;;;14.25;;
64795;SDS011;51229;51.980;6.722;2023-02-15T13:41:45;26.52;;;15.77;;
64795;SDS011;51229;51.980;6.722;2023-02-15T13:44:21;25.50;;;15.60;;
64795;SDS011;51229;51.980;6.722;2023-02-15T14:00:01;27.02;;;14.88;;
64795;SDS011;51229;51.980;6.722;2023-02-15T14:13:28;27.45;;;15.15;;
64795;SDS011;51229;51.980;6.722;2023-02-15T14:18:36;28.77;;;14.77;;
64795;SDS011;51229;51.980;6.722;2023-02-15T14:24:07;28.30;;;15.55;;
64795;SDS011;51229;51.980;6.722;2023-02-15T14:26:53;27.70;;;15.65;;
64795;SDS011;51229;51.980;6.722;2023-02-15T14:29:37;25.83;;;15.95;;
64795;SDS011;51229;51.980;6.722;2023-02-15T14:32:25;25.90;;;14.90;;
64795;SDS011;51229;51.980;6.722;2023-02-15T14:34:59;27.95;;;15.38;;
64795;SDS011;51229;51.980;6.722;2023-02-15T14:37:34;25.92;;;15.27;;
64795;SDS011;51229;51.980;6.722;2023-02-15T14:43:41;28.33;;;14.73;;
64795;SDS011;51229;51.980;6.722;2023-02-15T14:45:52;29.67;;;16.60;;
64795;SDS011;51229;51.980;6.722;2023-02-15T14:48:20;24.85;;;14.60;;
64795;SDS011;51229;51.980;6.722;2023-02-15T14:50:47;27.20;;;16.35;;
64795;SDS011;51229;51.980;6.722;2023-02-15T14:55:43;26.73;;;15.48;;
64795;SDS011;51229;51.980;6.722;2023-02-15T14:58:10;26.88;;;15.27;;
64795;SDS011;51229;51.980;6.722;2023-02-15T15:00:38;28.05;;;15.57;;
64795;SDS011;51229;51.980;6.722;2023-02-15T15:03:38;25.45;;;14.23;;
64795;SDS011;51229;51.980;6.722;2023-02-15T15:05:57;26.20;;;15.15;;
64795;SDS011;51229;51.980;6.722;2023-02-15T15:08:42;26.92;;;14.15;;
64795;SDS011;51229;51.980;6.722;2023-02-15T15:13:57;28.25;;;14.43;;
64795;SDS011;51229;51.980;6.722;2023-02-15T15:16:25;23.80;;;13.73;;
64795;SDS011;51229;51.980;6.722;2023-02-15T15:18:51;27.77;;;15.57;;
64795;SDS011;51229;51.980;6.722;2023-02-15T15:24:04;24.25;;;13.85;;
64795;SDS011;51229;51.980;6.722;2023-02-15T15:26:31;27.25;;;15.48;;
64795;SDS011;51229;51.980;6.722;2023-02-15T15:29:02;28.38;;;14.60;;
64795;SDS011;51229;51.980;6.722;2023-02-15T15:34:28;24.58;;;14.52;;
64795;SDS011;51229;51.980;6.722;2023-02-15T15:39:59;25.85;;;14.27;;
64795;SDS011;51229;51.980;6.722;2023-02-15T15:47:50;26.35;;;14.90;;
64795;SDS011;51229;51.980;6.722;2023-02-15T15:50:18;27.33;;;15.80;;
64795;SDS011;51229;51.980;6.722;2023-02-15T15:52:48;26.77;;;15.48;;
64795;SDS011;51229;51.980;6.722;2023-02-15T15:55:19;26.30;;;14.98;;
64795;SDS011;51229;51.980;6.722;2023-02-15T15:57:46;25.90;;;15.30;;
64795;SDS011;51229;51.980;6.722;2023-02-15T16:00:24;24.65;;;14.27;;
64795;SDS011;51229;51.980;6.722;2023-02-15T16:02:52;25.70;;;15.00;;
64795;SDS011;51229;51.980;6.722;2023-02-15T16:05:18;26.05;;;15.68;;
64795;SDS011;51229;51.980;6.722;2023-02-15T16:07:44;29.75;;;16.67;;
64795;SDS011;51229;51.980;6.722;2023-02-15T16:10:24;25.65;;;15.25;;
64795;SDS011;51229;51.980;6.722;2023-02-15T16:12:50;26.85;;;16.20;;
64795;SDS011;51229;51.980;6.722;2023-02-15T16:17:44;29.73;;;17.38;;
64795;SDS011;51229;51.980;6.722;2023-02-15T16:20:15;31.17;;;17.27;;
64795;SDS011;51229;51.980;6.722;2023-02-15T16:22:47;27.45;;;15.85;;
64795;SDS011;51229;51.980;6.722;2023-02-15T16:27:49;25.73;;;15.55;;
64795;SDS011;51229;51.980;6.722;2023-02-15T16:32:42;27.75;;;16.30;;
64795;SDS011;51229;51.980;6.722;2023-02-15T16:35:12;26.08;;;15.32;;
64795;SDS011;51229;51.980;6.722;2023-02-15T16:37:38;26.77;;;16.10;;
64795;SDS011;51229;51.980;6.722;2023-02-15T16:40:05;30.23;;;15.60;;
64795;SDS011;51229;51.980;6.722;2023-02-15T16:42:31;28.00;;;16.17;;
64795;SDS011;51229;51.980;6.722;2023-02-15T16:45:00;28.35;;;16.27;;
64795;SDS011;51229;51.980;6.722;2023-02-15T16:49:58;27.83;;;16.27;;
64795;SDS011;51229;51.980;6.722;2023-02-15T16:52:25;29.27;;;16.65;;
64795;SDS011;51229;51.980;6.722;2023-02-15T16:54:53;29.95;;;16.90;;
64795;SDS011;51229;51.980;6.722;2023-02-15T16:57:21;29.42;;;16.35;;
64795;SDS011;51229;51.980;6.722;2023-02-15T16:59:50;30.23;;;17.10;;
64795;SDS011;51229;51.980;6.722;2023-02-15T17:02:24;31.45;;;16.90;;
64795;SDS011;51229;51.980;6.722;2023-02-15T17:07:33;28.83;;;18.60;;
64795;SDS011;51229;51.980;6.722;2023-02-15T17:10:15;30.25;;;18.33;;
64795;SDS011;51229;51.980;6.722;2023-02-15T17:12:53;34.10;;;19.45;;
64795;SDS011;51229;51.980;6.722;2023-02-15T17:15:40;31.45;;;19.10;;
64795;SDS011;51229;51.980;6.722;2023-02-15T17:18:09;32.20;;;19.58;;
64795;SDS011;51229;51.980;6.722;2023-02-15T17:20:38;33.20;;;19.75;;
64795;SDS011;51229;51.980;6.722;2023-02-15T17:23:06;30.15;;;19.05;;
64795;SDS011;51229;51.980;6.722;2023-02-15T17:25:37;32.60;;;18.30;;
64795;SDS011;51229;51.980;6.722;2023-02-15T17:28:03;29.10;;;18.33;;